sensor_id;sensor_type;location;lat;lon;timestamp;temperature;humidity
40253;DHT22;25972;51.854;4.534;2022-12-24T00:02:22;8.80;99.90
40253;DHT22;25972;51.854;4.534;2022-12-24T00:04:48;8.90;99.90
40253;DHT22;25972;51.854;4.534;2022-12-24T00:07:14;8.80;99.90
40253;DHT22;25972;51.854;4.534;2022-12-24T00:09:40;8.80;99.90
40253;DHT22;25972;51.854;4.534;2022-12-24T00:12:06;8.70;99.90
40253;DHT22;25972;51.854;4.534;2022-12-24T00:14:32;8.70;99.90
40253;DHT22;25972;51.854;4.534;2022-12-24T00:16:58;8.70;99.90
40253;DHT22;25972;51.854;4.534;2022-12-24T00:19:24;8.80;99.90
40253;DHT22;25972;51.854;4.534;2022-12-24T00:21:50;8.70;99.90
40253;DHT22;25972;51.854;4.534;2022-12-24T00:24:16;8.80;99.90
40253;DHT22;25972;51.854;4.534;2022-12-24T00:26:41;8.70;99.90
40253;DHT22;25972;51.854;4.534;2022-12-24T00:29:08;8.70;99.90
40253;DHT22;25972;51.854;4.534;2022-12-24T00:31:34;8.60;99.90
40253;DHT22;25972;51.854;4.534;2022-12-24T00:34:00;8.60;99.90
40253;DHT22;25972;51.854;4.534;2022-12-24T00:36:25;8.70;99.90
40253;DHT22;25972;51.854;4.534;2022-12-24T00:38:51;8.60;99.90
40253;DHT22;25972;51.854;4.534;2022-12-24T00:41:17;8.50;99.90
40253;DHT22;25972;51.854;4.534;2022-12-24T00:43:56;8.60;99.90
40253;DHT22;25972;51.854;4.534;2022-12-24T00:46:22;8.70;99.90
40253;DHT22;25972;51.854;4.534;2022-12-24T00:48:48;8.70;99.90
40253;DHT22;25972;51.854;4.534;2022-12-24T00:51:15;8.60;99.90
40253;DHT22;25972;51.854;4.534;2022-12-24T00:53:41;8.60;99.90
40253;DHT22;25972;51.854;4.534;2022-12-24T00:56:07;8.60;99.90
40253;DHT22;25972;51.854;4.534;2022-12-24T00:58:33;8.60;99.90
40253;DHT22;25972;51.854;4.534;2022-12-24T01:00:59;8.40;99.90
40253;DHT22;25972;51.854;4.534;2022-12-24T01:03:25;8.50;99.90
40253;DHT22;25972;51.854;4.534;2022-12-24T01:06:09;8.40;99.90
40253;DHT22;25972;51.854;4.534;2022-12-24T01:08:36;8.50;99.90
40253;DHT22;25972;51.854;4.534;2022-12-24T01:11:04;8.50;99.90
40253;DHT22;25972;51.854;4.534;2022-12-24T01:13:30;8.50;99.90
40253;DHT22;25972;51.854;4.534;2022-12-24T01:15:56;8.40;99.90
40253;DHT22;25972;51.854;4.534;2022-12-24T01:18:23;8.40;99.90
40253;DHT22;25972;51.854;4.534;2022-12-24T01:21:01;8.40;99.90
40253;DHT22;25972;51.854;4.534;2022-12-24T01:23:29;8.50;99.90
40253;DHT22;25972;51.854;4.534;2022-12-24T01:26:02;8.40;99.90
40253;DHT22;25972;51.854;4.534;2022-12-24T01:28:28;8.30;99.90
40253;DHT22;25972;51.854;4.534;2022-12-24T01:30:54;8.40;99.90
40253;DHT22;25972;51.854;4.534;2022-12-24T01:33:20;8.50;99.90
40253;DHT22;25972;51.854;4.534;2022-12-24T01:35:46;8.50;99.90
40253;DHT22;25972;51.854;4.534;2022-12-24T01:38:14;8.40;99.90
40253;DHT22;25972;51.854;4.534;2022-12-24T01:40:41;8.50;99.90
40253;DHT22;25972;51.854;4.534;2022-12-24T01:43:29;8.40;99.90
40253;DHT22;25972;51.854;4.534;2022-12-24T01:46:10;8.50;99.90
40253;DHT22;25972;51.854;4.534;2022-12-24T01:48:59;8.40;99.90
40253;DHT22;25972;51.854;4.534;2022-12-24T01:51:31;8.50;99.90
40253;DHT22;25972;51.854;4.534;2022-12-24T01:56:52;8.40;99.90
40253;DHT22;25972;51.854;4.534;2022-12-24T01:59:19;8.40;99.90
40253;DHT22;25972;51.854;4.534;2022-12-24T02:01:49;8.40;99.90
40253;DHT22;25972;51.854;4.534;2022-12-24T02:04:28;8.60;99.90
40253;DHT22;25972;51.854;4.534;2022-12-24T02:06:55;8.50;99.90
40253;DHT22;25972;51.854;4.534;2022-12-24T02:09:21;8.60;99.90
40253;DHT22;25972;51.854;4.534;2022-12-24T02:11:47;8.60;99.90
40253;DHT22;25972;51.854;4.534;2022-12-24T02:14:13;8.50;99.90
40253;DHT22;25972;51.854;4.534;2022-12-24T02:22:17;8.60;99.90
40253;DHT22;25972;51.854;4.534;2022-12-24T02:25:08;8.50;99.90
40253;DHT22;25972;51.854;4.534;2022-12-24T02:30:37;8.70;99.90
40253;DHT22;25972;51.854;4.534;2022-12-24T02:37:02;8.70;99.90
40253;DHT22;25972;51.854;4.534;2022-12-24T02:39:21;8.60;99.90
40253;DHT22;25972;51.854;4.534;2022-12-24T02:41:50;8.90;99.90
40253;DHT22;25972;51.854;4.534;2022-12-24T02:44:43;8.90;99.90
40253;DHT22;25972;51.854;4.534;2022-12-24T02:47:10;8.80;99.90
40253;DHT22;25972;51.854;4.534;2022-12-24T02:49:37;8.90;99.90
40253;DHT22;25972;51.854;4.534;2022-12-24T02:52:04;8.90;99.90
40253;DHT22;25972;51.854;4.534;2022-12-24T02:54:30;9.00;99.90
40253;DHT22;25972;51.854;4.534;2022-12-24T02:57:07;8.90;99.90
40253;DHT22;25972;51.854;4.534;2022-12-24T03:04:58;8.90;99.90
40253;DHT22;25972;51.854;4.534;2022-12-24T03:13:05;9.00;99.90
40253;DHT22;25972;51.854;4.534;2022-12-24T03:15:32;9.10;99.90
40253;DHT22;25972;51.854;4.534;2022-12-24T03:18:01;9.10;99.90
40253;DHT22;25972;51.854;4.534;2022-12-24T03:20:42;8.90;99.90
40253;DHT22;25972;51.854;4.534;2022-12-24T03:23:08;9.10;99.90
40253;DHT22;25972;51.854;4.534;2022-12-24T03:25:39;9.00;99.90
40253;DHT22;25972;51.854;4.534;2022-12-24T03:28:05;9.00;99.90
40253;DHT22;25972;51.854;4.534;2022-12-24T03:30:32;9.10;99.90
40253;DHT22;25972;51.854;4.534;2022-12-24T03:32:58;9.20;99.90
40253;DHT22;25972;51.854;4.534;2022-12-24T03:35:24;9.10;99.90
40253;DHT22;25972;51.854;4.534;2022-12-24T03:37:50;9.10;99.90
40253;DHT22;25972;51.854;4.534;2022-12-24T03:40:16;9.30;99.90
40253;DHT22;25972;51.854;4.534;2022-12-24T03:42:42;9.10;99.90
40253;DHT22;25972;51.854;4.534;2022-12-24T03:45:08;9.10;99.90
40253;DHT22;25972;51.854;4.534;2022-12-24T03:47:35;9.30;99.90
40253;DHT22;25972;51.854;4.534;2022-12-24T03:50:01;9.40;99.90
40253;DHT22;25972;51.854;4.534;2022-12-24T03:52:27;9.30;99.90
40253;DHT22;25972;51.854;4.534;2022-12-24T03:54:53;9.30;99.90
40253;DHT22;25972;51.854;4.534;2022-12-24T03:57:19;9.40;99.90
40253;DHT22;25972;51.854;4.534;2022-12-24T03:59:44;9.30;99.90
40253;DHT22;25972;51.854;4.534;2022-12-24T04:02:10;9.30;99.90
40253;DHT22;25972;51.854;4.534;2022-12-24T04:04:36;9.30;99.90
40253;DHT22;25972;51.854;4.534;2022-12-24T04:07:03;9.40;99.90
40253;DHT22;25972;51.854;4.534;2022-12-24T04:09:29;9.40;99.90
40253;DHT22;25972;51.854;4.534;2022-12-24T04:11:55;9.50;99.90
40253;DHT22;25972;51.854;4.534;2022-12-24T04:14:21;9.20;99.90
40253;DHT22;25972;51.854;4.534;2022-12-24T04:16:47;9.40;99.90
40253;DHT22;25972;51.854;4.534;2022-12-24T04:19:13;9.50;99.90
40253;DHT22;25972;51.854;4.534;2022-12-24T04:21:39;9.50;99.90
40253;DHT22;25972;51.854;4.534;2022-12-24T04:24:05;9.40;99.90
40253;DHT22;25972;51.854;4.534;2022-12-24T04:26:31;9.30;99.90
40253;DHT22;25972;51.854;4.534;2022-12-24T04:28:57;9.50;99.90
40253;DHT22;25972;51.854;4.534;2022-12-24T04:31:22;9.50;99.90
40253;DHT22;25972;51.854;4.534;2022-12-24T04:33:50;9.30;99.90
40253;DHT22;25972;51.854;4.534;2022-12-24T04:36:17;9.50;99.90
40253;DHT22;25972;51.854;4.534;2022-12-24T04:38:44;9.50;99.90
40253;DHT22;25972;51.854;4.534;2022-12-24T04:41:19;9.30;99.90
40253;DHT22;25972;51.854;4.534;2022-12-24T04:43:45;9.30;99.90
40253;DHT22;25972;51.854;4.534;2022-12-24T04:46:14;9.50;99.90
40253;DHT22;25972;51.854;4.534;2022-12-24T04:48:43;9.30;99.90
40253;DHT22;25972;51.854;4.534;2022-12-24T04:51:09;9.40;99.90
40253;DHT22;25972;51.854;4.534;2022-12-24T04:53:36;9.50;99.90
40253;DHT22;25972;51.854;4.534;2022-12-24T04:56:03;9.30;99.90
40253;DHT22;25972;51.854;4.534;2022-12-24T04:58:32;9.50;99.90
40253;DHT22;25972;51.854;4.534;2022-12-24T05:01:03;9.40;99.90
40253;DHT22;25972;51.854;4.534;2022-12-24T05:03:29;9.40;99.90
40253;DHT22;25972;51.854;4.534;2022-12-24T05:06:06;9.50;99.90
40253;DHT22;25972;51.854;4.534;2022-12-24T05:08:32;9.50;99.90
40253;DHT22;25972;51.854;4.534;2022-12-24T05:11:01;9.50;99.90
40253;DHT22;25972;51.854;4.534;2022-12-24T05:13:27;9.60;99.90
40253;DHT22;25972;51.854;4.534;2022-12-24T05:15:54;9.50;99.90
40253;DHT22;25972;51.854;4.534;2022-12-24T05:18:20;9.70;99.90
40253;DHT22;25972;51.854;4.534;2022-12-24T05:20:46;9.70;99.90
40253;DHT22;25972;51.854;4.534;2022-12-24T05:23:18;9.70;99.90
40253;DHT22;25972;51.854;4.534;2022-12-24T05:26:04;9.60;99.90
40253;DHT22;25972;51.854;4.534;2022-12-24T05:28:53;9.70;99.90
40253;DHT22;25972;51.854;4.534;2022-12-24T05:31:21;9.70;99.90
40253;DHT22;25972;51.854;4.534;2022-12-24T05:33:48;9.50;99.90
40253;DHT22;25972;51.854;4.534;2022-12-24T05:36:15;9.70;99.90
40253;DHT22;25972;51.854;4.534;2022-12-24T05:38:41;9.60;99.90
40253;DHT22;25972;51.854;4.534;2022-12-24T05:41:07;9.60;99.90
40253;DHT22;25972;51.854;4.534;2022-12-24T05:43:35;9.70;99.90
40253;DHT22;25972;51.854;4.534;2022-12-24T05:46:02;9.60;99.90
40253;DHT22;25972;51.854;4.534;2022-12-24T05:48:28;9.60;99.90
40253;DHT22;25972;51.854;4.534;2022-12-24T05:50:55;9.70;99.90
40253;DHT22;25972;51.854;4.534;2022-12-24T05:53:21;9.50;99.90
40253;DHT22;25972;51.854;4.534;2022-12-24T05:55:47;9.60;99.90
40253;DHT22;25972;51.854;4.534;2022-12-24T05:58:13;9.50;99.90
40253;DHT22;25972;51.854;4.534;2022-12-24T06:00:41;9.60;99.90
40253;DHT22;25972;51.854;4.534;2022-12-24T06:03:07;9.40;99.90
40253;DHT22;25972;51.854;4.534;2022-12-24T06:05:33;9.50;99.90
40253;DHT22;25972;51.854;4.534;2022-12-24T06:07:59;9.30;99.90
40253;DHT22;25972;51.854;4.534;2022-12-24T06:10:24;9.20;99.90
40253;DHT22;25972;51.854;4.534;2022-12-24T06:12:50;9.20;99.90
40253;DHT22;25972;51.854;4.534;2022-12-24T06:15:17;9.30;99.90
40253;DHT22;25972;51.854;4.534;2022-12-24T06:17:44;9.30;99.90
40253;DHT22;25972;51.854;4.534;2022-12-24T06:20:10;9.20;99.90
40253;DHT22;25972;51.854;4.534;2022-12-24T06:22:36;9.10;99.90
40253;DHT22;25972;51.854;4.534;2022-12-24T06:25:02;9.10;99.90
40253;DHT22;25972;51.854;4.534;2022-12-24T06:27:28;9.10;99.90
40253;DHT22;25972;51.854;4.534;2022-12-24T06:29:54;8.90;99.90
40253;DHT22;25972;51.854;4.534;2022-12-24T06:32:20;8.90;99.90
40253;DHT22;25972;51.854;4.534;2022-12-24T06:34:46;8.90;99.90
40253;DHT22;25972;51.854;4.534;2022-12-24T06:37:12;8.80;99.90
40253;DHT22;25972;51.854;4.534;2022-12-24T06:39:44;8.90;99.90
40253;DHT22;25972;51.854;4.534;2022-12-24T06:42:11;8.80;99.90
40253;DHT22;25972;51.854;4.534;2022-12-24T06:44:37;8.90;99.90
40253;DHT22;25972;51.854;4.534;2022-12-24T06:47:03;9.00;99.90
40253;DHT22;25972;51.854;4.534;2022-12-24T06:49:29;8.80;99.90
40253;DHT22;25972;51.854;4.534;2022-12-24T06:51:55;9.10;99.90
40253;DHT22;25972;51.854;4.534;2022-12-24T06:54:21;8.90;99.90
40253;DHT22;25972;51.854;4.534;2022-12-24T06:56:47;8.90;99.90
40253;DHT22;25972;51.854;4.534;2022-12-24T06:59:13;9.10;99.90
40253;DHT22;25972;51.854;4.534;2022-12-24T07:01:38;8.90;99.90
40253;DHT22;25972;51.854;4.534;2022-12-24T07:04:04;9.10;99.90
40253;DHT22;25972;51.854;4.534;2022-12-24T07:06:30;9.00;99.90
40253;DHT22;25972;51.854;4.534;2022-12-24T07:08:56;9.20;99.90
40253;DHT22;25972;51.854;4.534;2022-12-24T07:11:23;9.10;99.90
40253;DHT22;25972;51.854;4.534;2022-12-24T07:13:49;9.30;99.90
40253;DHT22;25972;51.854;4.534;2022-12-24T07:16:15;9.30;99.90
40253;DHT22;25972;51.854;4.534;2022-12-24T07:18:42;9.20;99.90
40253;DHT22;25972;51.854;4.534;2022-12-24T07:21:08;9.40;99.90
40253;DHT22;25972;51.854;4.534;2022-12-24T07:23:34;9.40;99.90
40253;DHT22;25972;51.854;4.534;2022-12-24T07:26:04;9.30;99.90
40253;DHT22;25972;51.854;4.534;2022-12-24T07:28:30;9.30;99.90
40253;DHT22;25972;51.854;4.534;2022-12-24T07:30:57;9.30;99.90
40253;DHT22;25972;51.854;4.534;2022-12-24T07:33:24;9.50;99.90
40253;DHT22;25972;51.854;4.534;2022-12-24T07:36:20;9.40;99.90
40253;DHT22;25972;51.854;4.534;2022-12-24T07:38:47;9.40;99.90
40253;DHT22;25972;51.854;4.534;2022-12-24T07:41:13;9.50;99.90
40253;DHT22;25972;51.854;4.534;2022-12-24T07:43:39;9.60;99.90
40253;DHT22;25972;51.854;4.534;2022-12-24T07:46:05;9.40;99.90
40253;DHT22;25972;51.854;4.534;2022-12-24T07:48:31;9.30;99.90
40253;DHT22;25972;51.854;4.534;2022-12-24T07:50:58;9.40;99.90
40253;DHT22;25972;51.854;4.534;2022-12-24T07:53:25;9.40;99.90
40253;DHT22;25972;51.854;4.534;2022-12-24T07:55:51;9.20;99.90
40253;DHT22;25972;51.854;4.534;2022-12-24T07:58:18;9.30;99.90
40253;DHT22;25972;51.854;4.534;2022-12-24T08:00:44;9.20;99.90
40253;DHT22;25972;51.854;4.534;2022-12-24T08:03:16;9.10;99.90
40253;DHT22;25972;51.854;4.534;2022-12-24T08:05:42;9.30;99.90
40253;DHT22;25972;51.854;4.534;2022-12-24T08:08:08;9.10;99.90
40253;DHT22;25972;51.854;4.534;2022-12-24T08:10:34;9.10;99.90
40253;DHT22;25972;51.854;4.534;2022-12-24T08:13:03;9.00;99.90
40253;DHT22;25972;51.854;4.534;2022-12-24T08:15:29;9.20;99.90
40253;DHT22;25972;51.854;4.534;2022-12-24T08:17:55;9.10;99.90
40253;DHT22;25972;51.854;4.534;2022-12-24T08:20:21;9.10;99.90
40253;DHT22;25972;51.854;4.534;2022-12-24T08:22:46;8.90;99.90
40253;DHT22;25972;51.854;4.534;2022-12-24T08:25:12;9.10;99.90
40253;DHT22;25972;51.854;4.534;2022-12-24T08:27:38;8.90;99.90
40253;DHT22;25972;51.854;4.534;2022-12-24T08:30:05;8.90;99.90
40253;DHT22;25972;51.854;4.534;2022-12-24T08:32:31;9.10;99.90
40253;DHT22;25972;51.854;4.534;2022-12-24T08:34:56;9.10;99.90
40253;DHT22;25972;51.854;4.534;2022-12-24T08:37:22;9.00;99.90
40253;DHT22;25972;51.854;4.534;2022-12-24T08:39:49;9.10;99.90
40253;DHT22;25972;51.854;4.534;2022-12-24T08:42:15;9.30;99.90
40253;DHT22;25972;51.854;4.534;2022-12-24T08:44:41;9.10;99.90
40253;DHT22;25972;51.854;4.534;2022-12-24T08:47:07;9.30;99.90
40253;DHT22;25972;51.854;4.534;2022-12-24T08:49:33;9.10;99.90
40253;DHT22;25972;51.854;4.534;2022-12-24T08:51:58;9.20;99.90
40253;DHT22;25972;51.854;4.534;2022-12-24T08:54:29;9.30;99.90
40253;DHT22;25972;51.854;4.534;2022-12-24T08:56:55;9.50;99.90
40253;DHT22;25972;51.854;4.534;2022-12-24T08:59:21;9.50;99.90
40253;DHT22;25972;51.854;4.534;2022-12-24T09:01:47;9.40;99.90
40253;DHT22;25972;51.854;4.534;2022-12-24T09:04:14;9.40;99.90
40253;DHT22;25972;51.854;4.534;2022-12-24T09:06:39;9.60;99.90
40253;DHT22;25972;51.854;4.534;2022-12-24T09:09:06;9.60;99.90
40253;DHT22;25972;51.854;4.534;2022-12-24T09:11:33;9.50;99.90
40253;DHT22;25972;51.854;4.534;2022-12-24T09:14:00;9.60;99.90
40253;DHT22;25972;51.854;4.534;2022-12-24T09:16:28;9.60;99.90
40253;DHT22;25972;51.854;4.534;2022-12-24T09:18:53;9.70;99.90
40253;DHT22;25972;51.854;4.534;2022-12-24T09:21:21;9.80;99.90
40253;DHT22;25972;51.854;4.534;2022-12-24T09:23:47;9.80;99.90
40253;DHT22;25972;51.854;4.534;2022-12-24T09:26:24;9.80;99.90
40253;DHT22;25972;51.854;4.534;2022-12-24T09:28:51;9.70;99.90
40253;DHT22;25972;51.854;4.534;2022-12-24T09:31:17;9.70;99.90
40253;DHT22;25972;51.854;4.534;2022-12-24T09:33:45;9.70;99.90
40253;DHT22;25972;51.854;4.534;2022-12-24T09:36:13;9.80;99.90
40253;DHT22;25972;51.854;4.534;2022-12-24T09:38:39;9.70;99.90
40253;DHT22;25972;51.854;4.534;2022-12-24T09:43:55;9.80;99.90
40253;DHT22;25972;51.854;4.534;2022-12-24T09:46:29;10.00;99.90
40253;DHT22;25972;51.854;4.534;2022-12-24T09:49:02;10.00;99.90
40253;DHT22;25972;51.854;4.534;2022-12-24T09:56:41;10.10;99.90
40253;DHT22;25972;51.854;4.534;2022-12-24T09:59:21;10.10;99.90
40253;DHT22;25972;51.854;4.534;2022-12-24T10:01:52;10.00;99.90
40253;DHT22;25972;51.854;4.534;2022-12-24T10:04:27;10.10;99.90
40253;DHT22;25972;51.854;4.534;2022-12-24T10:20:33;10.20;99.90
40253;DHT22;25972;51.854;4.534;2022-12-24T10:25:52;10.20;99.90
40253;DHT22;25972;51.854;4.534;2022-12-24T10:28:33;10.20;99.90
40253;DHT22;25972;51.854;4.534;2022-12-24T10:31:04;10.10;99.90
40253;DHT22;25972;51.854;4.534;2022-12-24T10:36:11;10.30;99.90
40253;DHT22;25972;51.854;4.534;2022-12-24T10:38:40;10.30;99.90
40253;DHT22;25972;51.854;4.534;2022-12-24T10:41:06;10.30;99.90
40253;DHT22;25972;51.854;4.534;2022-12-24T10:43:37;10.30;99.90
40253;DHT22;25972;51.854;4.534;2022-12-24T10:46:18;10.20;99.90
40253;DHT22;25972;51.854;4.534;2022-12-24T10:48:53;10.30;99.90
40253;DHT22;25972;51.854;4.534;2022-12-24T10:54:15;10.20;99.90
40253;DHT22;25972;51.854;4.534;2022-12-24T10:56:46;10.10;99.90
40253;DHT22;25972;51.854;4.534;2022-12-24T10:59:41;10.10;99.90
40253;DHT22;25972;51.854;4.534;2022-12-24T11:02:28;10.10;99.90
40253;DHT22;25972;51.854;4.534;2022-12-24T11:04:55;10.10;99.90
40253;DHT22;25972;51.854;4.534;2022-12-24T11:07:24;10.20;99.90
40253;DHT22;25972;51.854;4.534;2022-12-24T11:10:06;10.20;99.90
40253;DHT22;25972;51.854;4.534;2022-12-24T11:12:45;10.30;99.90
40253;DHT22;25972;51.854;4.534;2022-12-24T11:15:30;10.30;99.90
40253;DHT22;25972;51.854;4.534;2022-12-24T11:18:03;10.30;99.90
40253;DHT22;25972;51.854;4.534;2022-12-24T11:20:32;10.20;99.90
40253;DHT22;25972;51.854;4.534;2022-12-24T11:23:00;10.30;99.90
40253;DHT22;25972;51.854;4.534;2022-12-24T11:25:29;10.30;99.90
40253;DHT22;25972;51.854;4.534;2022-12-24T11:28:09;10.40;99.90
40253;DHT22;25972;51.854;4.534;2022-12-24T11:30:35;10.40;99.90
40253;DHT22;25972;51.854;4.534;2022-12-24T11:35:31;10.60;99.90
40253;DHT22;25972;51.854;4.534;2022-12-24T11:40:43;10.50;99.90
40253;DHT22;25972;51.854;4.534;2022-12-24T11:43:16;10.50;99.90
40253;DHT22;25972;51.854;4.534;2022-12-24T11:45:54;10.40;99.90
40253;DHT22;25972;51.854;4.534;2022-12-24T11:48:26;10.40;99.90
40253;DHT22;25972;51.854;4.534;2022-12-24T11:50:58;10.40;99.90
40253;DHT22;25972;51.854;4.534;2022-12-24T11:53:47;10.30;99.90
40253;DHT22;25972;51.854;4.534;2022-12-24T11:56:42;10.30;99.90
40253;DHT22;25972;51.854;4.534;2022-12-24T11:59:17;10.30;99.90
40253;DHT22;25972;51.854;4.534;2022-12-24T12:01:48;10.30;99.90
40253;DHT22;25972;51.854;4.534;2022-12-24T12:04:35;10.30;99.90
40253;DHT22;25972;51.854;4.534;2022-12-24T12:07:10;10.30;99.90
40253;DHT22;25972;51.854;4.534;2022-12-24T12:09:51;10.30;99.90
40253;DHT22;25972;51.854;4.534;2022-12-24T12:12:31;10.40;99.90
40253;DHT22;25972;51.854;4.534;2022-12-24T12:15:02;10.40;99.90
40253;DHT22;25972;51.854;4.534;2022-12-24T12:17:42;10.40;99.90
40253;DHT22;25972;51.854;4.534;2022-12-24T12:20:34;10.40;99.90
40253;DHT22;25972;51.854;4.534;2022-12-24T12:31:16;10.50;99.90
40253;DHT22;25972;51.854;4.534;2022-12-24T12:33:54;10.40;99.90
40253;DHT22;25972;51.854;4.534;2022-12-24T12:36:28;10.40;99.90
40253;DHT22;25972;51.854;4.534;2022-12-24T12:38:55;10.40;99.90
40253;DHT22;25972;51.854;4.534;2022-12-24T12:41:33;10.40;99.90
40253;DHT22;25972;51.854;4.534;2022-12-24T12:44:36;10.30;99.90
40253;DHT22;25972;51.854;4.534;2022-12-24T12:50:48;10.50;99.90
40253;DHT22;25972;51.854;4.534;2022-12-24T12:53:29;10.50;99.90
40253;DHT22;25972;51.854;4.534;2022-12-24T12:56:25;10.60;99.90
40253;DHT22;25972;51.854;4.534;2022-12-24T12:59:06;10.60;99.90
40253;DHT22;25972;51.854;4.534;2022-12-24T13:07:42;10.50;99.90
40253;DHT22;25972;51.854;4.534;2022-12-24T13:18:37;10.30;99.90
40253;DHT22;25972;51.854;4.534;2022-12-24T13:21:16;10.30;99.90
40253;DHT22;25972;51.854;4.534;2022-12-24T13:23:43;10.20;99.90
40253;DHT22;25972;51.854;4.534;2022-12-24T13:26:13;10.20;99.90
40253;DHT22;25972;51.854;4.534;2022-12-24T13:28:39;10.10;99.90
40253;DHT22;25972;51.854;4.534;2022-12-24T13:36:14;10.00;99.90
40253;DHT22;25972;51.854;4.534;2022-12-24T13:38:50;10.10;99.90
40253;DHT22;25972;51.854;4.534;2022-12-24T13:46:53;10.00;99.90
40253;DHT22;25972;51.854;4.534;2022-12-24T13:49:45;10.00;99.90
40253;DHT22;25972;51.854;4.534;2022-12-24T13:52:20;10.00;99.90
40253;DHT22;25972;51.854;4.534;2022-12-24T13:57:31;10.00;99.90
40253;DHT22;25972;51.854;4.534;2022-12-24T14:02:43;10.00;99.90
40253;DHT22;25972;51.854;4.534;2022-12-24T14:05:23;9.50;99.90
40253;DHT22;25972;51.854;4.534;2022-12-24T14:07:52;10.00;99.90
40253;DHT22;25972;51.854;4.534;2022-12-24T14:10:30;10.00;99.90
40253;DHT22;25972;51.854;4.534;2022-12-24T14:12:56;9.90;99.90
40253;DHT22;25972;51.854;4.534;2022-12-24T14:18:17;10.00;99.90
40253;DHT22;25972;51.854;4.534;2022-12-24T14:20:47;9.70;99.90
40253;DHT22;25972;51.854;4.534;2022-12-24T14:25:56;10.10;99.90
40253;DHT22;25972;51.854;4.534;2022-12-24T14:28:27;10.00;99.90
40253;DHT22;25972;51.854;4.534;2022-12-24T14:31:03;9.90;99.90
40253;DHT22;25972;51.854;4.534;2022-12-24T14:33:34;9.90;99.90
40253;DHT22;25972;51.854;4.534;2022-12-24T14:36:01;9.90;99.90
40253;DHT22;25972;51.854;4.534;2022-12-24T14:38:28;9.90;99.90
40253;DHT22;25972;51.854;4.534;2022-12-24T14:44:25;9.70;99.90
40253;DHT22;25972;51.854;4.534;2022-12-24T14:49:57;9.80;99.90
40253;DHT22;25972;51.854;4.534;2022-12-24T14:52:36;9.80;99.90
40253;DHT22;25972;51.854;4.534;2022-12-24T14:55:29;9.60;99.90
40253;DHT22;25972;51.854;4.534;2022-12-24T14:58:32;9.60;99.90
40253;DHT22;25972;51.854;4.534;2022-12-24T15:01:24;9.60;99.90
40253;DHT22;25972;51.854;4.534;2022-12-24T15:09:02;9.50;99.90
40253;DHT22;25972;51.854;4.534;2022-12-24T15:11:28;9.50;99.90
40253;DHT22;25972;51.854;4.534;2022-12-24T15:13:56;9.40;99.90
40253;DHT22;25972;51.854;4.534;2022-12-24T15:16:31;9.50;99.90
40253;DHT22;25972;51.854;4.534;2022-12-24T15:19:04;9.30;99.90
40253;DHT22;25972;51.854;4.534;2022-12-24T15:21:40;9.30;99.90
40253;DHT22;25972;51.854;4.534;2022-12-24T15:24:27;9.30;99.90
40253;DHT22;25972;51.854;4.534;2022-12-24T15:26:53;9.30;99.90
40253;DHT22;25972;51.854;4.534;2022-12-24T15:29:26;9.20;99.90
40253;DHT22;25972;51.854;4.534;2022-12-24T15:32:00;9.10;99.90
40253;DHT22;25972;51.854;4.534;2022-12-24T15:34:41;9.30;99.90
40253;DHT22;25972;51.854;4.534;2022-12-24T15:37:20;9.20;99.90
40253;DHT22;25972;51.854;4.534;2022-12-24T15:40:38;9.20;99.90
40253;DHT22;25972;51.854;4.534;2022-12-24T15:42:59;9.20;99.90
40253;DHT22;25972;51.854;4.534;2022-12-24T15:45:30;9.20;99.90
40253;DHT22;25972;51.854;4.534;2022-12-24T15:48:18;9.20;99.90
40253;DHT22;25972;51.854;4.534;2022-12-24T15:50:57;9.10;99.90
40253;DHT22;25972;51.854;4.534;2022-12-24T15:53:36;9.10;99.90
40253;DHT22;25972;51.854;4.534;2022-12-24T15:56:26;9.00;99.90
40253;DHT22;25972;51.854;4.534;2022-12-24T16:01:46;9.00;99.90
40253;DHT22;25972;51.854;4.534;2022-12-24T16:04:23;9.10;99.90
40253;DHT22;25972;51.854;4.534;2022-12-24T16:06:57;9.20;99.90
40253;DHT22;25972;51.854;4.534;2022-12-24T16:09:43;9.10;99.90
40253;DHT22;25972;51.854;4.534;2022-12-24T16:12:16;9.10;99.90
40253;DHT22;25972;51.854;4.534;2022-12-24T16:14:49;9.20;99.90
40253;DHT22;25972;51.854;4.534;2022-12-24T16:17:19;9.10;99.90
40253;DHT22;25972;51.854;4.534;2022-12-24T16:19:47;9.20;99.90
40253;DHT22;25972;51.854;4.534;2022-12-24T16:22:17;8.90;99.90
40253;DHT22;25972;51.854;4.534;2022-12-24T16:24:56;8.90;99.90
40253;DHT22;25972;51.854;4.534;2022-12-24T16:27:23;8.90;99.90
40253;DHT22;25972;51.854;4.534;2022-12-24T16:29:49;9.00;99.90
40253;DHT22;25972;51.854;4.534;2022-12-24T16:32:31;8.90;99.90
40253;DHT22;25972;51.854;4.534;2022-12-24T16:35:02;9.00;99.90
40253;DHT22;25972;51.854;4.534;2022-12-24T16:37:28;9.00;99.90
40253;DHT22;25972;51.854;4.534;2022-12-24T16:39:54;8.90;99.90
40253;DHT22;25972;51.854;4.534;2022-12-24T16:42:20;9.00;99.90
40253;DHT22;25972;51.854;4.534;2022-12-24T16:45:05;9.00;99.90
40253;DHT22;25972;51.854;4.534;2022-12-24T16:47:32;8.80;99.90
40253;DHT22;25972;51.854;4.534;2022-12-24T16:49:58;8.90;99.90
40253;DHT22;25972;51.854;4.534;2022-12-24T16:52:26;8.80;99.90
40253;DHT22;25972;51.854;4.534;2022-12-24T16:54:54;8.80;99.90
40253;DHT22;25972;51.854;4.534;2022-12-24T16:57:21;8.90;99.90
40253;DHT22;25972;51.854;4.534;2022-12-24T16:59:47;8.70;99.90
40253;DHT22;25972;51.854;4.534;2022-12-24T17:02:15;8.90;99.90
40253;DHT22;25972;51.854;4.534;2022-12-24T17:04:42;8.70;99.90
40253;DHT22;25972;51.854;4.534;2022-12-24T17:07:10;8.80;99.90
40253;DHT22;25972;51.854;4.534;2022-12-24T17:09:36;8.80;99.90
40253;DHT22;25972;51.854;4.534;2022-12-24T17:12:02;8.70;99.90
40253;DHT22;25972;51.854;4.534;2022-12-24T17:14:28;8.60;99.90
40253;DHT22;25972;51.854;4.534;2022-12-24T17:16:54;8.50;99.90
40253;DHT22;25972;51.854;4.534;2022-12-24T17:19:20;8.50;99.90
40253;DHT22;25972;51.854;4.534;2022-12-24T17:21:46;8.60;99.90
40253;DHT22;25972;51.854;4.534;2022-12-24T17:24:12;8.40;99.90
40253;DHT22;25972;51.854;4.534;2022-12-24T17:26:39;8.40;99.90
40253;DHT22;25972;51.854;4.534;2022-12-24T17:29:05;8.40;99.90
40253;DHT22;25972;51.854;4.534;2022-12-24T17:31:32;8.30;99.90
40253;DHT22;25972;51.854;4.534;2022-12-24T17:33:58;8.40;99.90
40253;DHT22;25972;51.854;4.534;2022-12-24T17:36:24;8.40;99.90
40253;DHT22;25972;51.854;4.534;2022-12-24T17:38:50;8.60;99.90
40253;DHT22;25972;51.854;4.534;2022-12-24T17:41:18;8.60;99.90
40253;DHT22;25972;51.854;4.534;2022-12-24T17:43:45;8.60;99.90
40253;DHT22;25972;51.854;4.534;2022-12-24T17:46:14;8.50;99.90
40253;DHT22;25972;51.854;4.534;2022-12-24T17:48:41;8.50;99.90
40253;DHT22;25972;51.854;4.534;2022-12-24T17:51:09;8.50;99.90
40253;DHT22;25972;51.854;4.534;2022-12-24T17:53:37;8.50;99.90
40253;DHT22;25972;51.854;4.534;2022-12-24T17:56:05;8.60;99.90
40253;DHT22;25972;51.854;4.534;2022-12-24T17:58:32;8.60;99.90
40253;DHT22;25972;51.854;4.534;2022-12-24T18:00:59;8.70;99.90
40253;DHT22;25972;51.854;4.534;2022-12-24T18:03:24;8.50;99.90
40253;DHT22;25972;51.854;4.534;2022-12-24T18:05:51;8.60;99.90